Time;durP1;ratioP1;P1;durP2;ratioP2;P2;SDS_P1;SDS_P2;PMS_P1;PMS_P2;Temp;Humidity;BMP_temperature;BMP_pressure;BME280_temperature;BME280_humidity;BME280_pressure;Samples;Min_cycle;Max_cycle;Signal;HPM_P1;HPM_P2
2021/01/29 00:00:19;;;;;;;48.10;21.35;;;0.10;99.90;;;;;;5054460;28;20031;-81
2021/01/29 00:02:45;;;;;;;49.42;22.40;;;0.10;99.90;;;;;;5054490;28;20029;-81
2021/01/29 00:05:12;;;;;;;49.63;20.90;;;0.10;99.90;;;;;;5072330;28;20043;-81
2021/01/29 00:07:37;;;;;;;58.00;22.02;;;0.10;99.90;;;;;;5054310;28;20019;-81
2021/01/29 00:10:04;;;;;;;59.85;22.85;;;0.00;99.90;;;;;;5072283;28;20460;-81
2021/01/29 00:12:30;;;;;;;47.08;22.50;;;0.00;99.90;;;;;;5072398;28;20056;-81
2021/01/29 00:14:56;;;;;;;48.63;22.00;;;0.00;99.90;;;;;;5072148;28;20028;-81
2021/01/29 00:17:21;;;;;;;52.65;20.63;;;0.10;99.90;;;;;;5071007;28;20019;-81
2021/01/29 00:19:47;;;;;;;53.55;22.17;;;0.00;99.90;;;;;;5071957;28;20079;-81
2021/01/29 00:22:13;;;;;;;56.03;22.27;;;0.00;99.90;;;;;;5054313;28;20394;-81
2021/01/29 00:24:38;;;;;;;55.17;20.98;;;0.00;99.90;;;;;;5070480;28;20036;-81
2021/01/29 00:27:04;;;;;;;55.90;24.23;;;0.00;99.90;;;;;;5072387;28;20478;-81
2021/01/29 00:29:31;;;;;;;45.45;19.08;;;0.00;99.90;;;;;;5054143;28;20020;-81
2021/01/29 00:31:57;;;;;;;45.58;19.98;;;0.00;99.90;;;;;;5072217;28;20048;-81
2021/01/29 00:34:23;;;;;;;42.65;18.63;;;0.00;99.90;;;;;;5073710;28;20052;-81
2021/01/29 00:36:49;;;;;;;47.40;19.98;;;0.00;99.90;;;;;;5074337;28;20043;-81
2021/01/29 00:39:14;;;;;;;33.65;17.98;;;0.00;99.90;;;;;;5075678;28;20047;-81
2021/01/29 00:41:40;;;;;;;33.83;16.23;;;-0.10;99.90;;;;;;5074367;28;20024;-81
2021/01/29 00:44:06;;;;;;;35.00;16.58;;;-0.10;99.90;;;;;;5075495;28;20036;-80
2021/01/29 00:46:32;;;;;;;31.33;15.27;;;-0.10;99.90;;;;;;5075534;28;20028;-81
2021/01/29 00:48:58;;;;;;;30.85;17.73;;;-0.10;99.90;;;;;;5073958;28;20417;-81
2021/01/29 00:51:23;;;;;;;30.70;14.38;;;-0.10;99.90;;;;;;5075253;28;20028;-81
2021/01/29 00:53:49;;;;;;;36.55;16.45;;;-0.10;99.90;;;;;;5074147;28;20492;-80
2021/01/29 00:56:15;;;;;;;35.60;15.38;;;-0.10;99.90;;;;;;5075537;28;20426;-81
2021/01/29 00:58:40;;;;;;;31.17;14.65;;;-0.10;99.90;;;;;;5075182;28;20390;-80
2021/01/29 01:01:06;;;;;;;34.83;15.75;;;-0.10;99.90;;;;;;5075348;28;20024;-81
2021/01/29 01:03:32;;;;;;;34.67;14.50;;;-0.10;99.90;;;;;;5073814;28;20111;-81
2021/01/29 01:05:58;;;;;;;33.65;15.07;;;-0.20;99.90;;;;;;5073918;28;20393;-81
2021/01/29 01:08:23;;;;;;;36.33;16.10;;;-0.20;99.90;;;;;;5076431;28;20099;-82
2021/01/29 01:10:50;;;;;;;38.70;15.27;;;-0.10;99.90;;;;;;5094159;28;20012;-81
2021/01/29 01:13:16;;;;;;;35.10;15.93;;;-0.10;99.90;;;;;;5095156;28;20077;-82
2021/01/29 01:15:42;;;;;;;28.42;14.50;;;-0.10;99.90;;;;;;5093971;28;20433;-83
2021/01/29 01:18:08;;;;;;;29.20;13.43;;;-0.10;99.90;;;;;;5088819;28;20048;-82
2021/01/29 01:20:34;;;;;;;28.45;12.70;;;-0.20;99.90;;;;;;5056896;28;20492;-82
2021/01/29 01:23:00;;;;;;;28.73;12.82;;;-0.30;99.90;;;;;;5056951;28;20016;-82
2021/01/29 01:25:26;;;;;;;29.77;13.98;;;-0.40;99.90;;;;;;5074782;28;20032;-81
2021/01/29 01:27:52;;;;;;;35.40;15.20;;;-0.40;99.90;;;;;;5074785;28;20067;-81
2021/01/29 01:30:22;;;;;;;36.53;17.55;;;-0.50;99.90;;;;;;5056721;28;20058;-81
2021/01/29 01:32:48;;;;;;;36.25;14.85;;;-0.60;99.90;;;;;;5057056;28;20083;-81
2021/01/29 01:35:15;;;;;;;33.97;15.35;;;-0.70;99.90;;;;;;5074631;28;20028;-81
2021/01/29 01:37:40;;;;;;;35.47;17.63;;;-0.80;99.90;;;;;;5056671;28;20032;-80
2021/01/29 01:40:07;;;;;;;38.88;17.35;;;-0.80;99.90;;;;;;5073032;28;20025;-81
2021/01/29 01:42:32;;;;;;;36.35;16.88;;;-0.80;99.90;;;;;;5056349;28;20431;-81
2021/01/29 01:44:58;;;;;;;38.28;17.10;;;-0.80;99.90;;;;;;5074260;28;20067;-81
2021/01/29 01:47:32;;;;;;;35.45;16.27;;;-0.90;99.90;;;;;;5073989;28;20458;-81
2021/01/29 01:50:13;;;;;;;38.53;17.98;;;-0.90;99.90;;;;;;5056501;28;20059;-81
2021/01/29 01:52:40;;;;;;;36.67;17.42;;;-0.90;99.90;;;;;;5056434;28;20017;-81
2021/01/29 01:55:14;;;;;;;38.17;16.05;;;-1.00;99.90;;;;;;5056290;28;20029;-80
2021/01/29 01:57:43;;;;;;;42.95;17.92;;;-1.10;99.90;;;;;;5056290;28;20437;-81
2021/01/29 02:00:15;;;;;;;43.30;18.50;;;-1.10;99.90;;;;;;5074171;28;20381;-81
2021/01/29 02:02:45;;;;;;;41.42;19.17;;;-1.10;99.90;;;;;;5056140;28;20020;-81
2021/01/29 02:05:21;;;;;;;45.13;20.42;;;-1.20;99.90;;;;;;5056049;28;20064;-80
2021/01/29 02:07:49;;;;;;;44.10;19.02;;;-1.20;99.90;;;;;;5056104;28;20029;-81
2021/01/29 02:10:15;;;;;;;41.97;17.60;;;-1.20;99.90;;;;;;5073454;28;20481;-81
2021/01/29 02:12:41;;;;;;;39.17;18.85;;;-1.30;99.90;;;;;;5055158;28;20074;-81
2021/01/29 02:15:13;;;;;;;44.97;17.90;;;-1.30;99.90;;;;;;5080804;28;20028;-81
2021/01/29 02:18:02;;;;;;;43.75;17.25;;;-1.40;99.90;;;;;;5091437;28;20024;-80
2021/01/29 02:21:06;;;;;;;39.92;19.77;;;-1.30;99.90;;;;;;5072459;28;20367;-80
2021/01/29 02:24:00;;;;;;;43.55;17.92;;;-1.30;99.90;;;;;;5087341;28;20036;-81
2021/01/29 02:26:44;;;;;;;41.95;17.77;;;-1.30;99.90;;;;;;5062775;28;20032;-80
2021/01/29 02:29:31;;;;;;;39.20;16.80;;;-1.40;99.90;;;;;;5092411;28;20020;-81
2021/01/29 02:32:00;;;;;;;33.38;14.10;;;-1.40;99.90;;;;;;5092621;28;20031;-81
2021/01/29 02:35:03;;;;;;;30.60;16.10;;;-1.40;99.90;;;;;;5092131;28;20024;-80
2021/01/29 02:38:14;;;;;;;37.38;15.68;;;-1.40;99.90;;;;;;5072221;28;20021;-80
2021/01/29 02:41:00;;;;;;;30.90;15.77;;;-1.50;99.90;;;;;;5032530;28;20044;-80
2021/01/29 02:44:03;;;;;;;30.17;14.45;;;-1.50;99.90;;;;;;5072160;28;20028;-80
2021/01/29 02:46:54;;;;;;;28.88;14.32;;;-1.50;99.90;;;;;;5073436;28;20032;-80
2021/01/29 02:49:39;;;;;;;28.05;13.20;;;-1.50;99.90;;;;;;5055382;28;20389;-80
2021/01/29 02:52:57;;;;;;;24.13;11.57;;;-1.50;99.90;;;;;;5073302;28;20027;-80
2021/01/29 02:55:29;;;;;;;36.03;16.10;;;-1.50;99.90;;;;;;5055315;28;20021;-80
2021/01/29 02:58:11;;;;;;;36.25;13.70;;;-1.60;99.90;;;;;;5070786;28;20025;-81
2021/01/29 03:00:44;;;;;;;37.35;14.32;;;-1.60;99.90;;;;;;5055142;28;20039;-81
2021/01/29 03:03:21;;;;;;;33.15;16.02;;;-1.70;99.90;;;;;;5055141;28;20052;-81
2021/01/29 03:06:06;;;;;;;31.42;14.13;;;-1.70;99.90;;;;;;5054953;28;20067;-81
2021/01/29 03:08:38;;;;;;;28.20;14.05;;;-1.80;99.90;;;;;;5055006;28;20095;-81
2021/01/29 03:11:18;;;;;;;25.17;14.25;;;-1.90;99.90;;;;;;5071776;28;20043;-81
2021/01/29 03:13:52;;;;;;;24.92;12.63;;;-1.80;99.90;;;;;;5054984;28;20377;-81
2021/01/29 03:16:34;;;;;;;24.17;11.38;;;-1.90;99.90;;;;;;5055001;28;20028;-81
2021/01/29 03:19:13;;;;;;;28.67;11.75;;;-2.10;99.90;;;;;;5072855;28;20027;-80
2021/01/29 03:21:44;;;;;;;21.55;11.25;;;-2.10;99.90;;;;;;5054960;28;20020;-80
2021/01/29 03:24:22;;;;;;;25.33;11.77;;;-2.10;99.90;;;;;;5072800;28;20033;-80
2021/01/29 03:26:57;;;;;;;25.40;12.93;;;-2.20;99.90;;;;;;5072655;28;20031;-80
2021/01/29 03:29:25;;;;;;;33.17;14.82;;;-2.20;99.90;;;;;;5054876;28;20037;-80
2021/01/29 03:31:56;;;;;;;33.40;16.02;;;-2.30;99.90;;;;;;5054596;28;20074;-80
2021/01/29 03:34:37;;;;;;;30.23;14.45;;;-2.30;99.90;;;;;;5054762;28;20020;-80
2021/01/29 03:37:18;;;;;;;27.40;13.35;;;-2.40;99.90;;;;;;5071328;28;20071;-80
2021/01/29 03:39:44;;;;;;;26.77;13.60;;;-2.40;99.90;;;;;;5072404;28;20044;-81
2021/01/29 03:42:33;;;;;;;28.02;13.63;;;-2.50;99.90;;;;;;5072664;28;20025;-81
2021/01/29 03:45:28;;;;;;;18.05;10.10;;;-2.50;99.90;;;;;;5071249;28;20032;-79
2021/01/29 03:48:13;;;;;;;25.25;10.73;;;-2.60;99.90;;;;;;5072678;28;20020;-79
2021/01/29 03:50:39;;;;;;;22.95;11.88;;;-2.60;99.90;;;;;;5072613;28;20047;-79
2021/01/29 03:53:29;;;;;;;31.90;14.00;;;-2.70;99.90;;;;;;5072579;28;20037;-79
2021/01/29 03:56:06;;;;;;;20.58;10.07;;;-2.70;99.90;;;;;;5071981;28;20086;-79
2021/01/29 03:59:08;;;;;;;180.38;63.10;;;-2.70;99.90;;;;;;5054432;28;20021;-78
2021/01/29 04:01:39;;;;;;;457.77;150.73;;;-2.80;99.90;;;;;;5046814;28;20032;-78
2021/01/29 04:04:10;;;;;;;279.27;92.30;;;-2.80;99.90;;;;;;5071115;28;20095;-78
2021/01/29 04:06:46;;;;;;;755.30;288.23;;;-2.90;99.90;;;;;;5072110;28;20501;-78
2021/01/29 04:09:52;;;;;;;387.65;117.60;;;-2.80;99.90;;;;;;5073539;28;20028;-79
2021/01/29 04:12:25;;;;;;;117.47;39.35;;;-2.80;99.90;;;;;;5048318;28;20131;-78
2021/01/29 04:14:58;;;;;;;;;;;-2.90;99.90;;;;;;5076604;28;20075;-78
2021/01/29 04:17:31;;;;;;;192.73;55.63;;;-3.00;99.90;;;;;;5074897;28;19951;-78
2021/01/29 04:20:05;;;;;;;58.00;18.10;;;-3.00;99.90;;;;;;5058173;28;20389;-78
2021/01/29 04:22:36;;;;;;;68.60;19.83;;;-3.10;99.90;;;;;;5073732;28;20115;-78
2021/01/29 04:25:07;;;;;;;93.43;30.08;;;-3.20;99.90;;;;;;5056858;28;20064;-78
2021/01/29 04:27:37;;;;;;;109.00;32.53;;;-3.20;99.90;;;;;;5073938;28;20039;-77
2021/01/29 04:30:18;;;;;;;39.70;15.70;;;-3.20;99.90;;;;;;5075914;28;20497;-78
2021/01/29 04:32:50;;;;;;;148.10;50.63;;;-3.30;99.90;;;;;;5075898;28;20070;-78
2021/01/29 04:35:21;;;;;;;93.38;28.08;;;-3.30;99.90;;;;;;5075862;28;20086;-78
2021/01/29 04:38:15;;;;;;;44.00;15.15;;;-3.40;99.90;;;;;;5057672;28;20519;-78
2021/01/29 04:41:06;;;;;;;91.28;32.50;;;-3.50;99.90;;;;;;5055874;28;20033;-78
2021/01/29 04:43:59;;;;;;;29.17;9.38;;;-3.60;99.90;;;;;;5045567;28;21215;-78
2021/01/29 04:46:46;;;;;;;102.53;32.10;;;-3.70;99.90;;;;;;5070472;28;20103;-78
2021/01/29 04:49:21;;;;;;;48.47;20.35;;;-3.80;99.90;;;;;;5074864;28;20056;-78
2021/01/29 04:51:55;;;;;;;34.75;11.43;;;-3.90;99.90;;;;;;5075682;28;20031;-78
2021/01/29 04:54:45;;;;;;;35.45;14.95;;;-4.00;99.90;;;;;;5075539;28;20032;-78
2021/01/29 04:57:29;;;;;;;39.95;17.80;;;-4.10;99.90;;;;;;5072331;28;20082;-78
2021/01/29 05:00:34;;;;;;;32.00;12.90;;;-4.10;99.90;;;;;;5093453;28;20043;-78
2021/01/29 05:03:33;;;;;;;37.35;15.25;;;-4.20;99.90;;;;;;5067244;28;20067;-78
2021/01/29 05:06:07;;;;;;;25.35;12.88;;;-4.30;99.90;;;;;;5095389;28;20456;-79
2021/01/29 05:09:03;;;;;;;24.13;10.20;;;-4.40;99.90;;;;;;5094069;28;20370;-78
2021/01/29 05:11:47;;;;;;;16.80;8.15;;;-4.50;99.90;;;;;;5095522;28;20115;-78
2021/01/29 05:14:46;;;;;;;52.13;22.13;;;-4.60;99.90;;;;;;5095350;28;20478;-78
2021/01/29 05:17:18;;;;;;;124.25;49.70;;;-4.70;99.90;;;;;;5094207;28;20066;-78
2021/01/29 05:19:49;;;;;;;68.47;30.17;;;-4.70;99.90;;;;;;5093781;28;20028;-78
2021/01/29 05:22:36;;;;;;;25.70;12.60;;;-4.80;99.90;;;;;;5094511;28;20032;-78
2021/01/29 05:25:21;;;;;;;18.57;8.97;;;-4.80;99.90;;;;;;5093968;28;20078;-78
2021/01/29 05:28:19;;;;;;;26.47;13.83;;;-4.90;99.90;;;;;;5075261;28;20569;-78
2021/01/29 05:31:09;;;;;;;28.45;12.48;;;-5.00;99.90;;;;;;5073680;28;20385;-78
2021/01/29 05:34:05;;;;;;;40.17;17.33;;;-5.10;99.90;;;;;;5073440;28;20493;-80
2021/01/29 05:36:31;;;;;;;29.07;14.43;;;-5.10;99.90;;;;;;5073221;28;20056;-80
2021/01/29 05:39:20;;;;;;;25.23;12.73;;;-5.20;99.90;;;;;;5072851;28;20054;-80
2021/01/29 05:42:13;;;;;;;21.60;10.63;;;-5.20;99.90;;;;;;5074718;28;20446;-80
2021/01/29 05:45:16;;;;;;;29.95;15.10;;;-5.30;99.90;;;;;;5074560;28;20068;-80
2021/01/29 05:48:05;;;;;;;23.27;12.40;;;-5.30;99.90;;;;;;5073254;28;20043;-80
2021/01/29 05:50:49;;;;;;;56.80;29.33;;;-5.40;99.90;;;;;;5048705;28;20028;-80
2021/01/29 05:53:54;;;;;;;33.83;14.57;;;-5.50;99.90;;;;;;5073185;28;20066;-79
2021/01/29 05:56:29;;;;;;;21.20;12.33;;;-5.50;99.90;;;;;;5052665;28;20027;-79
2021/01/29 05:59:10;;;;;;;23.67;10.13;;;-5.60;99.90;;;;;;5053800;28;20033;-80
2021/01/29 06:02:07;;;;;;;37.17;20.30;;;-5.60;99.90;;;;;;5052715;28;20025;-80
2021/01/29 06:05:18;;;;;;;27.80;17.73;;;-5.70;99.90;;;;;;5052037;28;20386;-80
2021/01/29 06:08:21;;;;;;;70.57;28.37;;;-5.70;99.90;;;;;;5015918;28;20044;-80
2021/01/29 06:11:24;;;;;;;42.10;15.45;;;-5.80;99.90;;;;;;5073440;28;20036;-80
2021/01/29 06:14:26;;;;;;;40.00;17.90;;;-5.80;99.90;;;;;;5083840;28;20051;-79
2021/01/29 06:17:10;;;;;;;40.73;19.57;;;-5.90;99.90;;;;;;5089696;28;20110;-80
2021/01/29 06:20:07;;;;;;;56.93;25.13;;;-6.00;99.90;;;;;;5092799;28;20024;-80
2021/01/29 06:23:03;;;;;;;61.90;28.07;;;-6.10;99.90;;;;;;5093879;28;20024;-80
2021/01/29 06:26:05;;;;;;;37.17;16.73;;;-6.10;99.90;;;;;;5055872;28;20036;-81
2021/01/29 06:29:07;;;;;;;31.07;16.03;;;-6.10;99.90;;;;;;5055999;28;20362;-80
2021/01/29 06:32:03;;;;;;;43.83;17.80;;;-6.40;99.90;;;;;;5073456;28;20568;-80
2021/01/29 06:34:32;;;;;;;62.00;23.87;;;-6.40;99.90;;;;;;5072325;28;20032;-80
2021/01/29 06:37:30;;;;;;;39.77;17.47;;;-6.50;99.90;;;;;;5073637;28;20029;-80
2021/01/29 06:40:13;;;;;;;39.83;18.67;;;-6.50;99.90;;;;;;5070093;28;20021;-80
2021/01/29 06:42:44;;;;;;;;;;;-6.50;99.90;;;;;;5056957;28;20060;-80
2021/01/29 06:45:29;;;;;;;66.93;26.70;;;-6.50;99.90;;;;;;5080912;28;19912;-80
2021/01/29 06:48:01;;;;;;;70.40;27.80;;;-6.50;99.90;;;;;;5086691;28;20024;-80
2021/01/29 06:50:57;;;;;;;66.75;29.08;;;-6.40;99.90;;;;;;5089531;28;20046;-80
2021/01/29 06:53:50;;;;;;;58.57;26.23;;;-6.40;99.90;;;;;;5088434;28;20060;-80
2021/01/29 06:56:40;;;;;;;42.10;20.30;;;-6.30;99.90;;;;;;5071747;28;20345;-80
2021/01/29 06:59:23;;;;;;;42.43;20.23;;;-6.20;99.90;;;;;;5068815;28;20378;-80
2021/01/29 07:02:09;;;;;;;46.43;20.20;;;-6.20;99.90;;;;;;5070299;28;20067;-80
2021/01/29 07:05:13;;;;;;;78.53;33.83;;;-6.10;99.90;;;;;;5075633;28;20042;-80
2021/01/29 07:08:14;;;;;;;76.27;39.17;;;-6.00;99.90;;;;;;5073152;28;20028;-81
2021/01/29 07:10:51;;;;;;;59.10;27.53;;;-5.90;99.90;;;;;;5075561;28;20032;-79
2021/01/29 07:13:54;;;;;;;65.83;29.27;;;-5.90;99.90;;;;;;5079456;28;20064;-80
2021/01/29 07:16:22;;;;;;;53.47;26.10;;;-5.80;99.90;;;;;;5081061;28;20024;-79
2021/01/29 07:19:17;;;;;;;54.03;26.30;;;-5.70;99.90;;;;;;5077502;28;20315;-79
2021/01/29 07:21:51;;;;;;;46.33;19.90;;;-5.60;99.90;;;;;;5060300;28;20033;-80
2021/01/29 07:24:17;;;;;;;50.67;22.03;;;-5.50;99.90;;;;;;5072078;28;20086;-80
2021/01/29 07:27:03;;;;;;;42.90;19.37;;;-5.40;99.90;;;;;;5069895;28;20071;-80
2021/01/29 07:30:01;;;;;;;43.10;19.17;;;-5.30;99.90;;;;;;5070290;28;20016;-80
2021/01/29 07:32:56;;;;;;;42.77;21.93;;;-5.20;99.90;;;;;;5071488;28;20024;-80
2021/01/29 07:35:59;;;;;;;45.40;20.10;;;-5.10;99.90;;;;;;5061735;28;20048;-80
2021/01/29 07:38:33;;;;;;;45.83;20.90;;;-5.00;99.90;;;;;;5087177;28;20035;-80
2021/01/29 07:41:09;;;;;;;50.75;21.13;;;-4.80;99.90;;;;;;5069965;28;20023;-80
2021/01/29 07:43:47;;;;;;;138.25;46.63;;;-4.60;99.90;;;;;;5079020;28;20024;-80
2021/01/29 07:46:50;;;;;;;161.48;55.33;;;-4.40;99.90;;;;;;5074006;28;20070;-80
2021/01/29 07:49:51;;;;;;;118.07;44.17;;;-4.20;99.90;;;;;;5075393;28;20032;-80
2021/01/29 07:52:23;;;;;;;119.53;43.80;;;-4.00;99.90;;;;;;5075278;28;20024;-80
2021/01/29 07:55:10;;;;;;;125.65;48.67;;;-3.80;99.90;;;;;;5080882;28;20083;-80
2021/01/29 07:58:11;;;;;;;328.98;122.38;;;-3.70;99.90;;;;;;5038450;28;20028;-80
2021/01/29 08:00:58;;;;;;;438.42;168.50;;;-3.60;99.90;;;;;;5073462;28;20025;-80
2021/01/29 08:03:52;;;;;;;251.73;93.55;;;-3.70;99.90;;;;;;5073591;28;20032;-80
2021/01/29 08:06:30;;;;;;;171.82;63.78;;;-3.70;99.90;;;;;;5074160;28;20032;-80
2021/01/29 08:09:05;;;;;;;210.95;85.93;;;-3.60;99.90;;;;;;5071678;28;20474;-78
2021/01/29 08:11:38;;;;;;;140.80;51.08;;;-3.50;99.90;;;;;;5073832;28;20135;-80
2021/01/29 08:14:14;;;;;;;52.75;24.13;;;-3.50;99.90;;;;;;5057381;28;20497;-80
2021/01/29 08:16:52;;;;;;;38.75;18.92;;;-3.30;99.90;;;;;;5073654;28;20021;-80
2021/01/29 08:19:37;;;;;;;87.47;35.28;;;-3.20;99.90;;;;;;5073888;28;20029;-80
2021/01/29 08:22:43;;;;;;;226.50;80.78;;;-3.10;99.90;;;;;;5074690;28;20084;-81
2021/01/29 08:25:21;;;;;;;424.75;177.27;;;-3.00;99.90;;;;;;5084435;28;20044;-81
2021/01/29 08:28:14;;;;;;;276.10;101.40;;;-3.00;99.90;;;;;;5091770;28;20028;-81
2021/01/29 08:30:49;;;;;;;120.68;46.13;;;-3.00;99.90;;;;;;5077459;28;20421;-81
2021/01/29 08:34:06;;;;;;;109.65;46.08;;;-2.80;99.90;;;;;;5090456;28;20016;-82
2021/01/29 08:36:56;;;;;;;79.43;32.45;;;-2.80;99.90;;;;;;5050785;28;20041;-81
2021/01/29 08:39:32;;;;;;;60.95;26.02;;;-2.70;99.90;;;;;;5075530;28;20036;-81
2021/01/29 08:42:31;;;;;;;88.55;41.42;;;-2.60;99.90;;;;;;5075688;28;20017;-81
2021/01/29 08:45:28;;;;;;;86.05;38.33;;;-2.40;99.90;;;;;;5073902;28;20511;-81
2021/01/29 08:48:28;;;;;;;153.15;58.42;;;-2.40;99.90;;;;;;5074852;28;21894;-80
2021/01/29 08:51:13;;;;;;;150.02;57.58;;;-2.40;99.90;;;;;;5085561;28;21057;-80
2021/01/29 08:53:54;;;;;;;65.60;29.85;;;-2.20;99.90;;;;;;5083822;28;20033;-80
2021/01/29 08:56:41;;;;;;;57.97;27.63;;;-2.20;99.90;;;;;;5081973;28;20515;-80
2021/01/29 08:59:15;;;;;;;52.45;23.85;;;-2.20;99.60;;;;;;5076688;28;20434;-79
2021/01/29 09:02:05;;;;;;;58.10;26.80;;;-2.20;99.50;;;;;;5081876;28;20083;-81
2021/01/29 09:04:37;;;;;;;66.10;27.92;;;-2.10;99.90;;;;;;5085720;28;20115;-80
2021/01/29 09:07:15;;;;;;;48.50;28.20;;;-2.00;99.40;;;;;;5081765;28;20024;-79
2021/01/29 09:09:41;;;;;;;78.57;40.22;;;-2.00;98.90;;;;;;5082870;28;20115;-80
2021/01/29 09:12:17;;;;;;;110.70;49.70;;;-1.90;98.40;;;;;;5072224;28;20116;-81
2021/01/29 09:15:04;;;;;;;65.95;24.42;;;-1.70;97.60;;;;;;5070974;28;20103;-81
2021/01/29 09:17:46;;;;;;;80.00;29.02;;;-1.60;95.70;;;;;;5072790;28;20031;-80
2021/01/29 09:20:14;;;;;;;69.27;27.43;;;-1.60;94.50;;;;;;5071917;28;20020;-81
2021/01/29 09:23:01;;;;;;;93.50;40.80;;;-1.50;92.70;;;;;;5068601;28;20259;-80
2021/01/29 09:25:33;;;;;;;48.63;20.13;;;-1.50;91.40;;;;;;5064807;28;20502;-80
2021/01/29 09:28:05;;;;;;;;;;;-1.50;90.90;;;;;;5066837;28;20608;-81
2021/01/29 09:30:33;;;;;;;55.10;20.50;;;-1.40;90.10;;;;;;5070801;28;19904;-80
2021/01/29 09:33:14;;;;;;;33.70;15.65;;;-1.40;88.00;;;;;;5083602;28;20031;-80
2021/01/29 09:35:59;;;;;;;36.75;20.13;;;-1.40;85.40;;;;;;5079526;28;20043;-81
2021/01/29 09:38:36;;;;;;;90.32;33.15;;;-1.50;84.90;;;;;;5071875;28;20012;-81
2021/01/29 09:41:17;;;;;;;45.85;18.40;;;-1.40;86.40;;;;;;5083334;28;20039;-81
2021/01/29 09:44:01;;;;;;;37.20;15.52;;;-1.30;86.00;;;;;;5085975;28;20020;-80
2021/01/29 09:46:34;;;;;;;23.50;11.43;;;-1.20;84.80;;;;;;5078528;28;20111;-81
2021/01/29 09:49:01;;;;;;;;;;;-1.30;82.30;;;;;;5074945;28;20032;-80
2021/01/29 09:51:43;;;;;;;30.75;13.98;;;-1.10;82.90;;;;;;5072145;28;19904;-80
2021/01/29 09:54:22;;;;;;;32.47;14.35;;;-1.20;77.40;;;;;;5071168;28;20043;-80
2021/01/29 09:57:05;;;;;;;21.98;11.95;;;-1.20;78.30;;;;;;5073186;28;20036;-80
2021/01/29 09:59:40;;;;;;;;;;;-1.20;77.90;;;;;;5074895;28;20024;-80
2021/01/29 10:02:15;;;;;;;19.92;9.40;;;-1.20;77.40;;;;;;5074345;28;20323;-80
2021/01/29 10:05:00;;;;;;;24.58;10.30;;;-1.20;77.00;;;;;;5048878;28;20124;-80
2021/01/29 10:07:28;;;;;;;27.77;11.45;;;-1.20;74.50;;;;;;5072718;28;20020;-80
2021/01/29 10:10:07;;;;;;;16.02;7.65;;;-1.30;73.10;;;;;;5072798;28;20013;-80
2021/01/29 10:12:38;;;;;;;15.48;8.20;;;-1.20;73.30;;;;;;5072974;28;20351;-80
2021/01/29 10:15:18;;;;;;;14.30;8.88;;;-1.20;72.70;;;;;;5072836;28;20032;-80
2021/01/29 10:17:53;;;;;;;29.50;10.85;;;-1.10;74.00;;;;;;5055657;28;20075;-80
2021/01/29 10:20:28;;;;;;;23.45;11.20;;;-1.00;75.80;;;;;;5072288;28;20085;-80
2021/01/29 10:23:06;;;;;;;20.50;9.45;;;-0.90;75.40;;;;;;5071644;28;20542;-80
2021/01/29 10:25:47;;;;;;;90.07;36.78;;;-0.90;76.60;;;;;;5072386;28;20040;-80
2021/01/29 10:28:19;;;;;;;135.05;58.08;;;-0.80;76.90;;;;;;5069151;28;20082;-81
2021/01/29 10:30:45;;;;;;;98.38;41.65;;;-0.90;75.20;;;;;;5068525;28;20466;-81
2021/01/29 10:33:24;;;;;;;145.30;54.78;;;-0.80;74.80;;;;;;5088029;28;20074;-81
2021/01/29 10:36:04;;;;;;;91.03;32.38;;;-0.90;72.50;;;;;;5071143;28;20025;-81
2021/01/29 10:38:39;;;;;;;55.47;20.45;;;-0.80;73.00;;;;;;5071611;28;20020;-80
2021/01/29 10:41:12;;;;;;;71.07;26.60;;;-0.90;71.70;;;;;;5072637;28;20043;-81
2021/01/29 10:43:47;;;;;;;48.72;18.90;;;-0.90;72.60;;;;;;5073052;28;20029;-80
2021/01/29 10:46:27;;;;;;;62.35;23.83;;;-0.90;72.30;;;;;;5076986;28;20025;-80
2021/01/29 10:49:01;;;;;;;49.88;21.42;;;-0.70;73.00;;;;;;5082251;28;20027;-80
2021/01/29 10:51:29;;;;;;;57.38;23.77;;;-0.70;71.70;;;;;;5076464;28;20024;-81
2021/01/29 10:54:00;;;;;;;64.72;26.13;;;-0.70;72.60;;;;;;5072464;28;20020;-81
2021/01/29 10:56:38;;;;;;;55.08;21.63;;;-0.60;72.90;;;;;;5068638;28;20035;-81
2021/01/29 10:59:17;;;;;;;54.88;23.58;;;-0.50;73.70;;;;;;5069148;28;20032;-81
2021/01/29 11:01:47;;;;;;;62.22;25.40;;;-0.50;73.80;;;;;;5071368;28;20535;-81
2021/01/29 11:04:32;;;;;;;48.60;20.33;;;-0.40;74.40;;;;;;5067702;28;20036;-81
2021/01/29 11:07:06;;;;;;;46.90;17.65;;;-0.30;75.20;;;;;;5067506;28;20034;-80
2021/01/29 11:09:37;;;;;;;29.45;14.50;;;-0.10;75.00;;;;;;5071230;28;20025;-81
2021/01/29 11:12:19;;;;;;;24.10;13.32;;;0.00;74.30;;;;;;5072306;28;20069;-80
2021/01/29 11:15:16;;;;;;;27.02;13.52;;;0.00;74.30;;;;;;5072005;28;20040;-81
2021/01/29 11:17:57;;;;;;;25.38;13.00;;;0.00;74.00;;;;;;5068218;28;20032;-81
2021/01/29 11:20:36;;;;;;;29.20;14.27;;;0.00;74.10;;;;;;5071788;28;20024;-81
2021/01/29 11:23:20;;;;;;;30.15;13.93;;;-0.10;75.60;;;;;;5055509;28;20032;-80
2021/01/29 11:26:07;;;;;;;31.00;14.30;;;0.00;76.00;;;;;;5072040;28;20032;-80
2021/01/29 11:28:55;;;;;;;28.75;14.02;;;0.10;76.80;;;;;;5070309;28;20119;-80
2021/01/29 11:32:18;;;;;;;25.63;15.00;;;0.10;79.90;;;;;;5069509;28;20059;-80
2021/01/29 11:34:44;;;;;;;37.53;17.10;;;0.20;83.70;;;;;;5009144;28;20038;-80
2021/01/29 11:37:17;;;;;;;38.35;17.95;;;0.30;84.60;;;;;;4993680;28;20109;-80
2021/01/29 11:39:58;;;;;;;41.47;19.67;;;0.30;84.40;;;;;;5050059;28;20037;-80
2021/01/29 11:42:37;;;;;;;54.92;25.20;;;0.30;85.70;;;;;;5071928;28;20021;-80
2021/01/29 11:45:18;;;;;;;51.15;25.88;;;0.40;86.00;;;;;;5072165;28;20032;-80
2021/01/29 11:48:11;;;;;;;39.90;18.70;;;0.40;84.80;;;;;;5071100;28;20456;-81
2021/01/29 11:50:41;;;;;;;37.67;18.13;;;0.40;85.50;;;;;;5068786;28;20537;-80
2021/01/29 11:53:10;;;;;;;37.03;18.02;;;0.30;87.10;;;;;;5071472;28;20066;-81
2021/01/29 11:56:16;;;;;;;46.10;18.92;;;0.30;87.10;;;;;;5076183;28;20103;-80
2021/01/29 11:59:00;;;;;;;35.65;17.25;;;0.30;87.80;;;;;;5046610;28;20423;-80
2021/01/29 12:01:34;;;;;;;36.38;17.88;;;0.20;86.80;;;;;;5052331;28;20064;-82
2021/01/29 12:04:13;;;;;;;42.53;17.73;;;0.20;86.90;;;;;;5073552;28;20025;-82
2021/01/29 12:06:48;;;;;;;34.50;17.20;;;0.20;87.20;;;;;;5083333;28;20029;-81
2021/01/29 12:09:27;;;;;;;37.88;17.58;;;0.20;87.80;;;;;;5058198;28;20484;-80
2021/01/29 12:12:19;;;;;;;32.70;16.40;;;0.30;87.40;;;;;;5075383;28;20030;-80
2021/01/29 12:15:16;;;;;;;42.03;17.88;;;0.20;84.80;;;;;;5071856;28;20112;-81
2021/01/29 12:17:51;;;;;;;33.25;17.88;;;0.20;85.20;;;;;;5077594;28;20021;-80
2021/01/29 12:20:22;;;;;;;40.03;18.05;;;0.00;85.10;;;;;;5066559;28;20138;-81
2021/01/29 12:23:11;;;;;;;43.75;17.48;;;0.00;86.50;;;;;;5070200;28;20021;-80
2021/01/29 12:25:58;;;;;;;31.77;16.70;;;0.00;86.40;;;;;;5069257;28;20043;-81
2021/01/29 12:28:42;;;;;;;38.35;18.17;;;0.00;84.70;;;;;;5069721;28;20418;-80
2021/01/29 12:31:26;;;;;;;44.28;18.15;;;0.00;84.70;;;;;;5083056;28;20035;-80
2021/01/29 12:34:23;;;;;;;34.63;17.25;;;0.10;84.10;;;;;;5073764;28;20162;-80
2021/01/29 12:37:07;;;;;;;39.17;19.20;;;0.10;84.60;;;;;;5072393;28;20036;-80
2021/01/29 12:39:32;;;;;;;42.60;21.02;;;0.20;85.70;;;;;;5073066;28;20389;-80
2021/01/29 12:42:55;;;;;;;51.05;23.27;;;0.20;85.50;;;;;;5073907;28;20032;-80
2021/01/29 12:45:33;;;;;;;59.60;23.70;;;0.20;84.70;;;;;;5012976;28;20089;-80
2021/01/29 12:48:32;;;;;;;47.33;20.98;;;0.30;83.70;;;;;;5013180;28;20026;-80
2021/01/29 12:51:09;;;;;;;44.72;18.63;;;0.30;81.30;;;;;;5069070;28;20041;-80
2021/01/29 12:53:40;;;;;;;35.65;15.93;;;0.20;79.80;;;;;;5074935;28;20031;-80
2021/01/29 12:56:18;;;;;;;36.50;18.10;;;0.10;80.10;;;;;;5074815;28;20367;-81
2021/01/29 12:58:53;;;;;;;36.30;15.82;;;0.10;80.60;;;;;;5071485;28;20029;-80
2021/01/29 13:01:33;;;;;;;32.40;17.27;;;0.00;82.20;;;;;;5072754;28;20024;-81
2021/01/29 13:04:05;;;;;;;37.58;17.88;;;0.10;82.40;;;;;;5073286;28;20045;-82
2021/01/29 13:06:40;;;;;;;37.37;17.43;;;0.10;82.30;;;;;;5056593;28;20047;-82
2021/01/29 13:09:31;;;;;;;42.28;16.90;;;0.10;81.80;;;;;;5074654;28;20263;-82
2021/01/29 13:12:31;;;;;;;35.35;17.90;;;0.10;81.80;;;;;;5073231;28;20040;-82
2021/01/29 13:15:20;;;;;;;33.10;17.15;;;0.10;81.50;;;;;;5072438;28;20474;-82
2021/01/29 13:17:50;;;;;;;39.65;17.67;;;0.10;81.70;;;;;;5071039;28;20027;-82
2021/01/29 13:20:21;;;;;;;41.92;18.88;;;0.20;81.90;;;;;;5073498;28;20458;-82
2021/01/29 13:22:49;;;;;;;55.40;23.40;;;0.10;81.80;;;;;;5071675;28;20029;-82
2021/01/29 13:25:17;;;;;;;71.78;29.15;;;0.10;81.40;;;;;;5073747;28;20182;-82
2021/01/29 13:28:13;;;;;;;67.05;28.25;;;0.10;79.80;;;;;;5074398;28;20059;-81
2021/01/29 13:30:41;;;;;;;64.30;27.05;;;0.00;79.70;;;;;;5067345;28;20052;-82
2021/01/29 13:33:23;;;;;;;87.47;34.80;;;0.10;80.60;;;;;;5071605;28;20056;-82
2021/01/29 13:36:01;;;;;;;68.85;29.85;;;0.00;80.40;;;;;;5074198;28;20043;-83